sensor_id;sensor_type;location;lat;lon;timestamp;P1;durP1;ratioP1;P2;durP2;ratioP2
4182;SDS011;2105;52.300;9.182;2023-11-18T00:01:06;38.30;;;26.77;;
4182;SDS011;2105;52.300;9.182;2023-11-18T00:03:33;42.50;;;29.40;;
4182;SDS011;2105;52.300;9.182;2023-11-18T00:06:00;44.03;;;29.57;;
4182;SDS011;2105;52.300;9.182;2023-11-18T00:08:28;42.93;;;29.43;;
4182;SDS011;2105;52.300;9.182;2023-11-18T00:10:55;39.50;;;27.33;;
4182;SDS011;2105;52.300;9.182;2023-11-18T00:13:22;40.90;;;28.13;;
4182;SDS011;2105;52.300;9.182;2023-11-18T00:15:52;37.00;;;27.07;;
4182;SDS011;2105;52.300;9.182;2023-11-18T00:18:19;36.70;;;26.13;;
4182;SDS011;2105;52.300;9.182;2023-11-18T00:20:46;37.27;;;26.57;;
4182;SDS011;2105;52.300;9.182;2023-11-18T00:23:12;40.10;;;26.50;;
4182;SDS011;2105;52.300;9.182;2023-11-18T00:25:39;40.27;;;27.43;;
4182;SDS011;2105;52.300;9.182;2023-11-18T00:28:06;45.63;;;27.93;;
4182;SDS011;2105;52.300;9.182;2023-11-18T00:30:33;41.30;;;27.77;;
4182;SDS011;2105;52.300;9.182;2023-11-18T00:33:01;42.43;;;29.13;;
4182;SDS011;2105;52.300;9.182;2023-11-18T00:35:28;35.40;;;25.83;;
4182;SDS011;2105;52.300;9.182;2023-11-18T00:37:57;45.70;;;30.90;;
4182;SDS011;2105;52.300;9.182;2023-11-18T00:40:23;50.13;;;30.10;;
4182;SDS011;2105;52.300;9.182;2023-11-18T00:42:50;43.50;;;28.20;;
4182;SDS011;2105;52.300;9.182;2023-11-18T00:45:17;51.83;;;32.23;;
4182;SDS011;2105;52.300;9.182;2023-11-18T00:47:44;44.47;;;30.27;;
4182;SDS011;2105;52.300;9.182;2023-11-18T00:50:12;47.80;;;31.83;;
4182;SDS011;2105;52.300;9.182;2023-11-18T00:52:38;56.53;;;31.33;;
4182;SDS011;2105;52.300;9.182;2023-11-18T00:55:06;55.67;;;31.07;;
4182;SDS011;2105;52.300;9.182;2023-11-18T00:57:35;47.47;;;29.77;;
4182;SDS011;2105;52.300;9.182;2023-11-18T01:00:04;45.00;;;30.03;;
4182;SDS011;2105;52.300;9.182;2023-11-18T01:02:32;46.67;;;30.33;;
4182;SDS011;2105;52.300;9.182;2023-11-18T01:04:58;43.17;;;29.23;;
4182;SDS011;2105;52.300;9.182;2023-11-18T01:07:26;46.60;;;29.30;;
4182;SDS011;2105;52.300;9.182;2023-11-18T01:09:53;48.73;;;29.90;;
4182;SDS011;2105;52.300;9.182;2023-11-18T01:12:20;52.63;;;32.60;;
4182;SDS011;2105;52.300;9.182;2023-11-18T01:14:47;49.23;;;30.50;;
4182;SDS011;2105;52.300;9.182;2023-11-18T01:17:12;55.43;;;30.70;;
4182;SDS011;2105;52.300;9.182;2023-11-18T01:19:39;48.57;;;29.73;;
4182;SDS011;2105;52.300;9.182;2023-11-18T01:22:06;50.37;;;31.77;;
4182;SDS011;2105;52.300;9.182;2023-11-18T01:24:35;54.30;;;32.30;;
4182;SDS011;2105;52.300;9.182;2023-11-18T01:27:01;51.83;;;33.67;;
4182;SDS011;2105;52.300;9.182;2023-11-18T01:29:28;58.83;;;32.93;;
4182;SDS011;2105;52.300;9.182;2023-11-18T01:31:56;56.50;;;33.60;;
4182;SDS011;2105;52.300;9.182;2023-11-18T01:34:23;54.53;;;33.53;;
4182;SDS011;2105;52.300;9.182;2023-11-18T01:36:50;56.53;;;33.97;;
4182;SDS011;2105;52.300;9.182;2023-11-18T01:39:18;61.40;;;31.53;;
4182;SDS011;2105;52.300;9.182;2023-11-18T01:41:46;62.30;;;33.37;;
4182;SDS011;2105;52.300;9.182;2023-11-18T01:44:13;51.67;;;30.40;;
4182;SDS011;2105;52.300;9.182;2023-11-18T01:46:40;56.93;;;33.17;;
4182;SDS011;2105;52.300;9.182;2023-11-18T01:49:10;60.33;;;32.90;;
4182;SDS011;2105;52.300;9.182;2023-11-18T01:51:38;53.37;;;32.50;;
4182;SDS011;2105;52.300;9.182;2023-11-18T01:54:06;53.30;;;32.27;;
4182;SDS011;2105;52.300;9.182;2023-11-18T01:56:38;57.13;;;32.00;;
4182;SDS011;2105;52.300;9.182;2023-11-18T01:59:06;57.70;;;32.27;;
4182;SDS011;2105;52.300;9.182;2023-11-18T02:01:35;61.50;;;35.50;;
4182;SDS011;2105;52.300;9.182;2023-11-18T02:04:04;54.87;;;32.27;;
4182;SDS011;2105;52.300;9.182;2023-11-18T02:06:32;55.87;;;33.47;;
4182;SDS011;2105;52.300;9.182;2023-11-18T02:08:59;61.03;;;35.00;;
4182;SDS011;2105;52.300;9.182;2023-11-18T02:11:30;56.70;;;34.63;;
4182;SDS011;2105;52.300;9.182;2023-11-18T02:14:07;68.67;;;33.60;;
4182;SDS011;2105;52.300;9.182;2023-11-18T02:16:40;62.10;;;35.70;;
4182;SDS011;2105;52.300;9.182;2023-11-18T02:19:09;64.73;;;36.20;;
4182;SDS011;2105;52.300;9.182;2023-11-18T02:21:45;59.40;;;34.80;;
4182;SDS011;2105;52.300;9.182;2023-11-18T02:24:24;63.20;;;35.60;;
4182;SDS011;2105;52.300;9.182;2023-11-18T02:26:53;62.63;;;34.47;;
4182;SDS011;2105;52.300;9.182;2023-11-18T02:29:20;60.53;;;34.00;;
4182;SDS011;2105;52.300;9.182;2023-11-18T02:31:47;62.20;;;33.97;;
4182;SDS011;2105;52.300;9.182;2023-11-18T02:34:19;59.77;;;34.67;;
4182;SDS011;2105;52.300;9.182;2023-11-18T02:36:52;56.90;;;33.83;;
4182;SDS011;2105;52.300;9.182;2023-11-18T02:39:26;55.77;;;32.90;;
4182;SDS011;2105;52.300;9.182;2023-11-18T02:41:57;63.27;;;35.00;;
4182;SDS011;2105;52.300;9.182;2023-11-18T02:44:26;62.70;;;33.50;;
4182;SDS011;2105;52.300;9.182;2023-11-18T02:46:57;66.40;;;33.60;;
4182;SDS011;2105;52.300;9.182;2023-11-18T02:49:24;60.17;;;33.30;;
4182;SDS011;2105;52.300;9.182;2023-11-18T02:51:51;66.70;;;33.33;;
4182;SDS011;2105;52.300;9.182;2023-11-18T02:54:18;54.50;;;30.83;;
4182;SDS011;2105;52.300;9.182;2023-11-18T02:56:44;64.20;;;32.60;;
4182;SDS011;2105;52.300;9.182;2023-11-18T02:59:13;61.53;;;30.10;;
4182;SDS011;2105;52.300;9.182;2023-11-18T03:01:39;60.20;;;32.00;;
4182;SDS011;2105;52.300;9.182;2023-11-18T03:04:06;60.37;;;32.70;;
4182;SDS011;2105;52.300;9.182;2023-11-18T03:06:33;65.07;;;33.20;;
4182;SDS011;2105;52.300;9.182;2023-11-18T03:09:00;59.00;;;31.93;;
4182;SDS011;2105;52.300;9.182;2023-11-18T03:11:27;60.60;;;31.37;;
4182;SDS011;2105;52.300;9.182;2023-11-18T03:13:55;57.73;;;32.80;;
4182;SDS011;2105;52.300;9.182;2023-11-18T03:16:23;55.03;;;31.17;;
4182;SDS011;2105;52.300;9.182;2023-11-18T03:18:50;61.93;;;31.10;;
4182;SDS011;2105;52.300;9.182;2023-11-18T03:21:17;60.70;;;32.50;;
4182;SDS011;2105;52.300;9.182;2023-11-18T03:23:45;59.73;;;33.70;;
4182;SDS011;2105;52.300;9.182;2023-11-18T03:26:12;60.03;;;32.23;;
4182;SDS011;2105;52.300;9.182;2023-11-18T03:28:39;54.43;;;31.47;;
4182;SDS011;2105;52.300;9.182;2023-11-18T03:31:06;58.73;;;31.67;;
4182;SDS011;2105;52.300;9.182;2023-11-18T03:33:35;56.87;;;33.23;;
4182;SDS011;2105;52.300;9.182;2023-11-18T03:36:02;55.90;;;33.63;;
4182;SDS011;2105;52.300;9.182;2023-11-18T03:38:29;54.40;;;32.00;;
4182;SDS011;2105;52.300;9.182;2023-11-18T03:40:56;61.70;;;33.90;;
4182;SDS011;2105;52.300;9.182;2023-11-18T03:43:23;51.77;;;28.90;;
4182;SDS011;2105;52.300;9.182;2023-11-18T03:45:50;53.57;;;29.77;;
4182;SDS011;2105;52.300;9.182;2023-11-18T03:48:21;59.83;;;31.20;;
4182;SDS011;2105;52.300;9.182;2023-11-18T03:50:49;54.37;;;32.07;;
4182;SDS011;2105;52.300;9.182;2023-11-18T03:53:16;56.17;;;32.13;;
4182;SDS011;2105;52.300;9.182;2023-11-18T03:55:43;55.40;;;31.90;;
4182;SDS011;2105;52.300;9.182;2023-11-18T03:58:08;56.67;;;32.10;;
4182;SDS011;2105;52.300;9.182;2023-11-18T04:00:35;58.40;;;31.63;;
4182;SDS011;2105;52.300;9.182;2023-11-18T04:03:02;57.30;;;32.93;;
4182;SDS011;2105;52.300;9.182;2023-11-18T04:05:32;53.57;;;31.50;;
4182;SDS011;2105;52.300;9.182;2023-11-18T04:08:02;60.50;;;33.50;;
4182;SDS011;2105;52.300;9.182;2023-11-18T04:10:29;57.87;;;33.67;;
4182;SDS011;2105;52.300;9.182;2023-11-18T04:12:55;56.57;;;32.37;;
4182;SDS011;2105;52.300;9.182;2023-11-18T04:15:22;53.77;;;32.30;;
4182;SDS011;2105;52.300;9.182;2023-11-18T04:17:49;54.63;;;31.20;;
4182;SDS011;2105;52.300;9.182;2023-11-18T04:20:17;64.20;;;31.67;;
4182;SDS011;2105;52.300;9.182;2023-11-18T04:22:44;70.77;;;33.83;;
4182;SDS011;2105;52.300;9.182;2023-11-18T04:25:12;55.07;;;30.43;;
4182;SDS011;2105;52.300;9.182;2023-11-18T04:27:40;59.57;;;31.73;;
4182;SDS011;2105;52.300;9.182;2023-11-18T04:30:07;52.67;;;29.33;;
4182;SDS011;2105;52.300;9.182;2023-11-18T04:32:33;57.30;;;32.47;;
4182;SDS011;2105;52.300;9.182;2023-11-18T04:35:00;52.87;;;30.83;;
4182;SDS011;2105;52.300;9.182;2023-11-18T04:37:31;53.83;;;30.03;;
4182;SDS011;2105;52.300;9.182;2023-11-18T04:39:58;50.93;;;29.80;;
4182;SDS011;2105;52.300;9.182;2023-11-18T04:42:26;56.17;;;31.17;;
4182;SDS011;2105;52.300;9.182;2023-11-18T04:44:54;47.83;;;28.87;;
4182;SDS011;2105;52.300;9.182;2023-11-18T04:47:21;46.87;;;29.00;;
4182;SDS011;2105;52.300;9.182;2023-11-18T04:49:50;54.27;;;30.07;;
4182;SDS011;2105;52.300;9.182;2023-11-18T04:52:16;49.27;;;29.27;;
4182;SDS011;2105;52.300;9.182;2023-11-18T04:54:43;50.73;;;28.50;;
4182;SDS011;2105;52.300;9.182;2023-11-18T04:57:12;51.57;;;30.10;;
4182;SDS011;2105;52.300;9.182;2023-11-18T04:59:41;51.17;;;29.97;;
4182;SDS011;2105;52.300;9.182;2023-11-18T05:02:08;257.37;;;25.77;;
4182;SDS011;2105;52.300;9.182;2023-11-18T05:04:34;38.23;;;23.97;;
4182;SDS011;2105;52.300;9.182;2023-11-18T05:07:02;146.23;;;23.70;;
4182;SDS011;2105;52.300;9.182;2023-11-18T05:09:29;41.20;;;25.40;;
4182;SDS011;2105;52.300;9.182;2023-11-18T05:11:57;54.07;;;32.00;;
4182;SDS011;2105;52.300;9.182;2023-11-18T05:14:24;49.77;;;28.37;;
4182;SDS011;2105;52.300;9.182;2023-11-18T05:16:52;47.43;;;26.77;;
4182;SDS011;2105;52.300;9.182;2023-11-18T05:19:19;50.10;;;27.67;;
4182;SDS011;2105;52.300;9.182;2023-11-18T05:21:46;44.63;;;26.37;;
4182;SDS011;2105;52.300;9.182;2023-11-18T05:24:14;45.10;;;25.70;;
4182;SDS011;2105;52.300;9.182;2023-11-18T05:26:41;50.90;;;28.20;;
4182;SDS011;2105;52.300;9.182;2023-11-18T05:29:08;52.57;;;27.00;;
4182;SDS011;2105;52.300;9.182;2023-11-18T05:31:35;44.50;;;25.70;;
4182;SDS011;2105;52.300;9.182;2023-11-18T05:34:03;47.27;;;27.30;;
4182;SDS011;2105;52.300;9.182;2023-11-18T05:36:30;48.40;;;28.70;;
4182;SDS011;2105;52.300;9.182;2023-11-18T05:39:02;50.37;;;29.07;;
4182;SDS011;2105;52.300;9.182;2023-11-18T05:41:30;47.80;;;27.67;;
4182;SDS011;2105;52.300;9.182;2023-11-18T05:43:57;57.77;;;29.20;;
4182;SDS011;2105;52.300;9.182;2023-11-18T05:46:24;57.23;;;31.83;;
4182;SDS011;2105;52.300;9.182;2023-11-18T05:48:54;43.43;;;25.00;;
4182;SDS011;2105;52.300;9.182;2023-11-18T05:51:24;50.13;;;28.13;;
4182;SDS011;2105;52.300;9.182;2023-11-18T05:53:51;40.53;;;26.33;;
4182;SDS011;2105;52.300;9.182;2023-11-18T05:56:19;48.00;;;25.87;;
4182;SDS011;2105;52.300;9.182;2023-11-18T05:58:47;48.23;;;26.63;;
4182;SDS011;2105;52.300;9.182;2023-11-18T06:01:14;41.67;;;25.60;;
4182;SDS011;2105;52.300;9.182;2023-11-18T06:03:42;44.83;;;26.73;;
4182;SDS011;2105;52.300;9.182;2023-11-18T06:06:11;49.80;;;28.13;;
4182;SDS011;2105;52.300;9.182;2023-11-18T06:08:40;50.43;;;28.00;;
4182;SDS011;2105;52.300;9.182;2023-11-18T06:11:08;47.80;;;28.97;;
4182;SDS011;2105;52.300;9.182;2023-11-18T06:13:39;42.40;;;25.00;;
4182;SDS011;2105;52.300;9.182;2023-11-18T06:16:08;54.37;;;28.73;;
4182;SDS011;2105;52.300;9.182;2023-11-18T06:18:39;55.53;;;29.67;;
4182;SDS011;2105;52.300;9.182;2023-11-18T06:21:06;41.93;;;25.50;;
4182;SDS011;2105;52.300;9.182;2023-11-18T06:23:33;55.43;;;30.57;;
4182;SDS011;2105;52.300;9.182;2023-11-18T06:26:02;49.43;;;27.77;;
4182;SDS011;2105;52.300;9.182;2023-11-18T06:28:29;71.13;;;29.07;;
4182;SDS011;2105;52.300;9.182;2023-11-18T06:30:56;53.83;;;30.07;;
4182;SDS011;2105;52.300;9.182;2023-11-18T06:33:22;49.67;;;27.37;;
4182;SDS011;2105;52.300;9.182;2023-11-18T06:35:52;55.27;;;30.13;;
4182;SDS011;2105;52.300;9.182;2023-11-18T06:38:21;62.40;;;30.80;;
4182;SDS011;2105;52.300;9.182;2023-11-18T06:40:48;58.87;;;29.67;;
4182;SDS011;2105;52.300;9.182;2023-11-18T06:43:18;50.17;;;28.00;;
4182;SDS011;2105;52.300;9.182;2023-11-18T06:45:45;56.43;;;30.33;;
4182;SDS011;2105;52.300;9.182;2023-11-18T06:48:13;52.53;;;29.70;;
4182;SDS011;2105;52.300;9.182;2023-11-18T06:50:44;58.43;;;31.03;;
4182;SDS011;2105;52.300;9.182;2023-11-18T06:53:12;55.83;;;28.50;;
4182;SDS011;2105;52.300;9.182;2023-11-18T06:55:40;45.17;;;25.63;;
4182;SDS011;2105;52.300;9.182;2023-11-18T06:58:07;55.70;;;30.27;;
4182;SDS011;2105;52.300;9.182;2023-11-18T07:00:35;57.37;;;27.63;;
4182;SDS011;2105;52.300;9.182;2023-11-18T07:03:03;53.37;;;25.90;;
4182;SDS011;2105;52.300;9.182;2023-11-18T07:05:30;60.43;;;28.97;;
4182;SDS011;2105;52.300;9.182;2023-11-18T07:07:57;59.57;;;28.90;;
4182;SDS011;2105;52.300;9.182;2023-11-18T07:10:24;63.47;;;29.50;;
4182;SDS011;2105;52.300;9.182;2023-11-18T07:12:53;63.70;;;30.43;;
4182;SDS011;2105;52.300;9.182;2023-11-18T07:15:20;61.03;;;28.77;;
4182;SDS011;2105;52.300;9.182;2023-11-18T07:17:48;59.83;;;29.87;;
4182;SDS011;2105;52.300;9.182;2023-11-18T07:20:16;59.50;;;29.47;;
4182;SDS011;2105;52.300;9.182;2023-11-18T07:22:43;62.97;;;32.33;;
4182;SDS011;2105;52.300;9.182;2023-11-18T07:25:10;70.50;;;31.57;;
4182;SDS011;2105;52.300;9.182;2023-11-18T07:27:37;66.30;;;29.50;;
4182;SDS011;2105;52.300;9.182;2023-11-18T07:30:05;72.70;;;32.30;;
4182;SDS011;2105;52.300;9.182;2023-11-18T07:32:35;59.93;;;30.83;;
4182;SDS011;2105;52.300;9.182;2023-11-18T07:35:04;69.93;;;30.90;;
4182;SDS011;2105;52.300;9.182;2023-11-18T07:37:34;59.17;;;29.73;;
4182;SDS011;2105;52.300;9.182;2023-11-18T07:40:02;63.57;;;30.93;;
4182;SDS011;2105;52.300;9.182;2023-11-18T07:42:30;59.57;;;28.80;;
4182;SDS011;2105;52.300;9.182;2023-11-18T07:44:59;60.20;;;29.93;;
4182;SDS011;2105;52.300;9.182;2023-11-18T07:47:28;66.43;;;31.87;;
4182;SDS011;2105;52.300;9.182;2023-11-18T07:49:56;59.53;;;28.40;;
4182;SDS011;2105;52.300;9.182;2023-11-18T07:52:24;68.83;;;29.67;;
4182;SDS011;2105;52.300;9.182;2023-11-18T07:54:52;54.43;;;27.10;;
4182;SDS011;2105;52.300;9.182;2023-11-18T07:57:19;52.50;;;28.80;;
4182;SDS011;2105;52.300;9.182;2023-11-18T07:59:48;60.93;;;28.90;;
4182;SDS011;2105;52.300;9.182;2023-11-18T08:02:15;54.50;;;28.43;;
4182;SDS011;2105;52.300;9.182;2023-11-18T08:04:43;54.03;;;28.67;;
4182;SDS011;2105;52.300;9.182;2023-11-18T08:07:10;49.93;;;27.67;;
4182;SDS011;2105;52.300;9.182;2023-11-18T08:09:38;58.37;;;29.07;;
4182;SDS011;2105;52.300;9.182;2023-11-18T08:12:06;57.63;;;30.30;;
4182;SDS011;2105;52.300;9.182;2023-11-18T08:14:34;60.03;;;29.70;;
4182;SDS011;2105;52.300;9.182;2023-11-18T08:17:01;53.90;;;29.50;;
4182;SDS011;2105;52.300;9.182;2023-11-18T08:19:29;56.47;;;29.03;;
4182;SDS011;2105;52.300;9.182;2023-11-18T08:21:56;58.27;;;28.70;;
4182;SDS011;2105;52.300;9.182;2023-11-18T08:24:24;53.47;;;29.90;;
4182;SDS011;2105;52.300;9.182;2023-11-18T08:26:53;50.83;;;29.67;;
4182;SDS011;2105;52.300;9.182;2023-11-18T08:29:19;46.23;;;24.47;;
4182;SDS011;2105;52.300;9.182;2023-11-18T08:31:46;48.03;;;27.00;;
4182;SDS011;2105;52.300;9.182;2023-11-18T08:34:13;55.77;;;27.50;;
4182;SDS011;2105;52.300;9.182;2023-11-18T08:36:39;42.30;;;24.23;;
4182;SDS011;2105;52.300;9.182;2023-11-18T08:39:08;53.03;;;23.90;;
4182;SDS011;2105;52.300;9.182;2023-11-18T08:41:36;33.20;;;20.77;;
4182;SDS011;2105;52.300;9.182;2023-11-18T08:44:05;39.20;;;22.87;;
4182;SDS011;2105;52.300;9.182;2023-11-18T08:46:34;25.70;;;17.00;;
4182;SDS011;2105;52.300;9.182;2023-11-18T08:49:01;26.40;;;18.23;;
4182;SDS011;2105;52.300;9.182;2023-11-18T08:51:35;21.53;;;16.13;;
4182;SDS011;2105;52.300;9.182;2023-11-18T08:54:03;24.83;;;17.73;;
4182;SDS011;2105;52.300;9.182;2023-11-18T08:56:47;28.47;;;18.33;;
4182;SDS011;2105;52.300;9.182;2023-11-18T08:59:17;27.80;;;18.67;;
4182;SDS011;2105;52.300;9.182;2023-11-18T09:01:45;27.40;;;17.90;;
4182;SDS011;2105;52.300;9.182;2023-11-18T09:04:14;24.60;;;17.47;;
4182;SDS011;2105;52.300;9.182;2023-11-18T09:06:40;26.27;;;18.73;;
4182;SDS011;2105;52.300;9.182;2023-11-18T09:09:07;19.53;;;16.00;;
4182;SDS011;2105;52.300;9.182;2023-11-18T09:11:36;20.70;;;17.10;;
4182;SDS011;2105;52.300;9.182;2023-11-18T09:14:06;22.80;;;18.10;;
4182;SDS011;2105;52.300;9.182;2023-11-18T09:16:35;24.50;;;18.10;;
4182;SDS011;2105;52.300;9.182;2023-11-18T09:19:04;28.00;;;19.80;;
4182;SDS011;2105;52.300;9.182;2023-11-18T09:21:31;30.50;;;19.23;;
4182;SDS011;2105;52.300;9.182;2023-11-18T09:24:00;28.43;;;19.63;;
4182;SDS011;2105;52.300;9.182;2023-11-18T09:26:30;20.90;;;16.67;;
4182;SDS011;2105;52.300;9.182;2023-11-18T09:28:57;19.67;;;17.63;;
4182;SDS011;2105;52.300;9.182;2023-11-18T09:31:26;25.97;;;18.90;;
4182;SDS011;2105;52.300;9.182;2023-11-18T09:33:54;24.10;;;19.37;;
4182;SDS011;2105;52.300;9.182;2023-11-18T09:36:22;24.40;;;18.03;;
4182;SDS011;2105;52.300;9.182;2023-11-18T09:38:49;26.43;;;18.63;;
4182;SDS011;2105;52.300;9.182;2023-11-18T09:41:17;21.10;;;18.80;;
4182;SDS011;2105;52.300;9.182;2023-11-18T09:43:44;19.50;;;17.53;;
4182;SDS011;2105;52.300;9.182;2023-11-18T09:46:13;20.23;;;17.30;;
4182;SDS011;2105;52.300;9.182;2023-11-18T09:48:44;24.23;;;18.90;;
4182;SDS011;2105;52.300;9.182;2023-11-18T09:51:19;20.93;;;18.83;;
4182;SDS011;2105;52.300;9.182;2023-11-18T09:53:48;21.27;;;18.77;;
4182;SDS011;2105;52.300;9.182;2023-11-18T09:56:18;21.30;;;19.10;;
4182;SDS011;2105;52.300;9.182;2023-11-18T09:59:05;21.70;;;19.40;;
4182;SDS011;2105;52.300;9.182;2023-11-18T10:01:40;33.50;;;24.10;;
4182;SDS011;2105;52.300;9.182;2023-11-18T10:04:09;26.30;;;19.50;;
4182;SDS011;2105;52.300;9.182;2023-11-18T10:06:38;21.77;;;19.50;;
4182;SDS011;2105;52.300;9.182;2023-11-18T10:09:09;21.97;;;19.67;;
4182;SDS011;2105;52.300;9.182;2023-11-18T10:11:44;21.17;;;18.67;;
4182;SDS011;2105;52.300;9.182;2023-11-18T10:14:13;25.27;;;19.07;;
4182;SDS011;2105;52.300;9.182;2023-11-18T10:16:41;20.60;;;18.43;;
4182;SDS011;2105;52.300;9.182;2023-11-18T10:19:11;21.40;;;19.20;;
4182;SDS011;2105;52.300;9.182;2023-11-18T10:21:40;20.27;;;18.27;;
4182;SDS011;2105;52.300;9.182;2023-11-18T10:24:07;20.00;;;18.00;;
4182;SDS011;2105;52.300;9.182;2023-11-18T10:26:39;21.30;;;19.10;;
4182;SDS011;2105;52.300;9.182;2023-11-18T10:29:10;22.23;;;18.47;;
4182;SDS011;2105;52.300;9.182;2023-11-18T10:31:38;21.20;;;18.67;;
4182;SDS011;2105;52.300;9.182;2023-11-18T10:34:10;22.07;;;19.50;;
4182;SDS011;2105;52.300;9.182;2023-11-18T10:36:42;20.63;;;18.47;;
4182;SDS011;2105;52.300;9.182;2023-11-18T10:39:28;20.53;;;18.50;;
4182;SDS011;2105;52.300;9.182;2023-11-18T10:41:58;20.83;;;18.83;;
4182;SDS011;2105;52.300;9.182;2023-11-18T10:44:25;21.27;;;19.07;;
4182;SDS011;2105;52.300;9.182;2023-11-18T10:46:53;22.23;;;19.93;;
4182;SDS011;2105;52.300;9.182;2023-11-18T10:49:23;22.90;;;19.93;;
4182;SDS011;2105;52.300;9.182;2023-11-18T10:51:52;21.33;;;18.90;;
4182;SDS011;2105;52.300;9.182;2023-11-18T10:54:19;22.73;;;18.73;;
4182;SDS011;2105;52.300;9.182;2023-11-18T10:56:47;20.63;;;18.53;;
4182;SDS011;2105;52.300;9.182;2023-11-18T10:59:14;21.23;;;19.03;;
4182;SDS011;2105;52.300;9.182;2023-11-18T11:01:43;26.00;;;20.27;;
4182;SDS011;2105;52.300;9.182;2023-11-18T11:04:13;21.87;;;19.20;;
4182;SDS011;2105;52.300;9.182;2023-11-18T11:06:42;20.90;;;18.67;;
4182;SDS011;2105;52.300;9.182;2023-11-18T11:09:18;20.90;;;18.13;;
4182;SDS011;2105;52.300;9.182;2023-11-18T11:11:49;21.83;;;18.93;;
4182;SDS011;2105;52.300;9.182;2023-11-18T11:14:20;23.70;;;16.80;;
4182;SDS011;2105;52.300;9.182;2023-11-18T11:16:51;20.87;;;16.73;;
4182;SDS011;2105;52.300;9.182;2023-11-18T11:19:20;17.20;;;15.40;;
4182;SDS011;2105;52.300;9.182;2023-11-18T11:21:52;19.40;;;16.50;;
4182;SDS011;2105;52.300;9.182;2023-11-18T11:24:31;18.80;;;16.80;;
4182;SDS011;2105;52.300;9.182;2023-11-18T11:27:09;26.20;;;16.83;;
4182;SDS011;2105;52.300;9.182;2023-11-18T11:29:50;20.73;;;16.80;;
4182;SDS011;2105;52.300;9.182;2023-11-18T11:32:23;17.57;;;14.87;;
4182;SDS011;2105;52.300;9.182;2023-11-18T11:34:56;17.67;;;15.77;;
4182;SDS011;2105;52.300;9.182;2023-11-18T11:37:32;17.57;;;15.77;;
4182;SDS011;2105;52.300;9.182;2023-11-18T11:40:02;18.00;;;15.83;;
4182;SDS011;2105;52.300;9.182;2023-11-18T11:42:34;18.23;;;15.83;;
4182;SDS011;2105;52.300;9.182;2023-11-18T11:45:01;17.00;;;15.30;;
4182;SDS011;2105;52.300;9.182;2023-11-18T11:47:28;16.03;;;14.33;;
4182;SDS011;2105;52.300;9.182;2023-11-18T11:50:02;22.83;;;15.87;;
4182;SDS011;2105;52.300;9.182;2023-11-18T11:52:38;19.57;;;16.30;;
4182;SDS011;2105;52.300;9.182;2023-11-18T11:55:13;15.83;;;14.03;;
4182;SDS011;2105;52.300;9.182;2023-11-18T11:57:50;23.00;;;15.20;;
4182;SDS011;2105;52.300;9.182;2023-11-18T12:00:18;20.70;;;14.87;;
4182;SDS011;2105;52.300;9.182;2023-11-18T12:02:51;18.43;;;16.43;;
4182;SDS011;2105;52.300;9.182;2023-11-18T12:05:20;18.00;;;16.00;;
4182;SDS011;2105;52.300;9.182;2023-11-18T12:07:51;17.53;;;15.70;;
4182;SDS011;2105;52.300;9.182;2023-11-18T12:10:21;20.90;;;15.97;;
4182;SDS011;2105;52.300;9.182;2023-11-18T12:13:06;16.47;;;14.73;;
4182;SDS011;2105;52.300;9.182;2023-11-18T12:15:49;18.33;;;16.50;;
4182;SDS011;2105;52.300;9.182;2023-11-18T12:18:19;16.03;;;14.50;;
4182;SDS011;2105;52.300;9.182;2023-11-18T12:20:47;20.50;;;15.90;;
4182;SDS011;2105;52.300;9.182;2023-11-18T12:23:19;19.10;;;16.80;;
4182;SDS011;2105;52.300;9.182;2023-11-18T12:25:49;19.57;;;15.60;;
4182;SDS011;2105;52.300;9.182;2023-11-18T12:28:19;19.90;;;16.20;;
4182;SDS011;2105;52.300;9.182;2023-11-18T12:30:52;17.40;;;15.70;;
4182;SDS011;2105;52.300;9.182;2023-11-18T12:33:20;18.43;;;16.20;;
4182;SDS011;2105;52.300;9.182;2023-11-18T12:38:58;20.63;;;15.80;;
4182;SDS011;2105;52.300;9.182;2023-11-18T12:41:44;19.17;;;15.57;;
4182;SDS011;2105;52.300;9.182;2023-11-18T12:44:25;19.97;;;14.67;;
4182;SDS011;2105;52.300;9.182;2023-11-18T12:46:59;20.50;;;16.03;;
4182;SDS011;2105;52.300;9.182;2023-11-18T12:49:36;16.80;;;14.80;;
4182;SDS011;2105;52.300;9.182;2023-11-18T12:52:06;19.73;;;15.70;;
4182;SDS011;2105;52.300;9.182;2023-11-18T12:54:34;17.17;;;15.40;;
4182;SDS011;2105;52.300;9.182;2023-11-18T12:57:04;22.63;;;16.53;;
4182;SDS011;2105;52.300;9.182;2023-11-18T12:59:32;19.53;;;16.33;;
4182;SDS011;2105;52.300;9.182;2023-11-18T13:01:59;17.93;;;15.50;;
4182;SDS011;2105;52.300;9.182;2023-11-18T13:04:29;16.70;;;14.63;;
4182;SDS011;2105;52.300;9.182;2023-11-18T13:06:56;20.33;;;17.43;;
4182;SDS011;2105;52.300;9.182;2023-11-18T13:09:25;24.30;;;16.20;;
4182;SDS011;2105;52.300;9.182;2023-11-18T13:11:57;17.97;;;16.07;;
4182;SDS011;2105;52.300;9.182;2023-11-18T13:14:30;18.27;;;14.40;;
4182;SDS011;2105;52.300;9.182;2023-11-18T13:17:01;17.83;;;15.90;;
4182;SDS011;2105;52.300;9.182;2023-11-18T13:19:31;16.30;;;14.67;;
4182;SDS011;2105;52.300;9.182;2023-11-18T13:21:59;17.87;;;15.97;;
4182;SDS011;2105;52.300;9.182;2023-11-18T13:24:28;18.07;;;16.17;;
4182;SDS011;2105;52.300;9.182;2023-11-18T13:26:57;17.77;;;15.70;;
4182;SDS011;2105;52.300;9.182;2023-11-18T13:29:28;17.50;;;15.73;;
4182;SDS011;2105;52.300;9.182;2023-11-18T13:31:57;16.00;;;14.50;;
4182;SDS011;2105;52.300;9.182;2023-11-18T13:34:28;18.97;;;15.63;;
4182;SDS011;2105;52.300;9.182;2023-11-18T13:36:57;19.93;;;15.80;;
4182;SDS011;2105;52.300;9.182;2023-11-18T13:39:24;17.70;;;15.20;;
4182;SDS011;2105;52.300;9.182;2023-11-18T13:41:52;15.50;;;13.90;;
4182;SDS011;2105;52.300;9.182;2023-11-18T13:44:33;15.67;;;14.07;;
4182;SDS011;2105;52.300;9.182;2023-11-18T13:47:04;17.20;;;14.20;;
4182;SDS011;2105;52.300;9.182;2023-11-18T13:49:31;14.83;;;13.33;;
4182;SDS011;2105;52.300;9.182;2023-11-18T13:51:59;15.27;;;13.67;;
4182;SDS011;2105;52.300;9.182;2023-11-18T13:54:27;17.50;;;14.00;;
4182;SDS011;2105;52.300;9.182;2023-11-18T13:56:54;15.80;;;13.67;;
4182;SDS011;2105;52.300;9.182;2023-11-18T13:59:23;11.87;;;10.57;;
4182;SDS011;2105;52.300;9.182;2023-11-18T14:01:52;14.50;;;12.00;;
4182;SDS011;2105;52.300;9.182;2023-11-18T14:04:22;16.83;;;11.93;;
4182;SDS011;2105;52.300;9.182;2023-11-18T14:06:50;16.70;;;12.20;;
4182;SDS011;2105;52.300;9.182;2023-11-18T14:09:18;13.60;;;12.20;;
4182;SDS011;2105;52.300;9.182;2023-11-18T14:11:46;12.37;;;11.17;;
4182;SDS011;2105;52.300;9.182;2023-11-18T14:14:13;13.70;;;12.30;;
4182;SDS011;2105;52.300;9.182;2023-11-18T14:16:40;14.93;;;10.83;;
4182;SDS011;2105;52.300;9.182;2023-11-18T14:19:08;14.00;;;11.80;;
4182;SDS011;2105;52.300;9.182;2023-11-18T14:21:36;12.60;;;10.10;;
4182;SDS011;2105;52.300;9.182;2023-11-18T14:24:02;12.33;;;10.23;;
4182;SDS011;2105;52.300;9.182;2023-11-18T14:26:29;12.03;;;9.90;;
4182;SDS011;2105;52.300;9.182;2023-11-18T14:28:56;12.80;;;9.07;;
4182;SDS011;2105;52.300;9.182;2023-11-18T14:31:23;13.67;;;8.90;;
4182;SDS011;2105;52.300;9.182;2023-11-18T14:33:50;13.33;;;9.63;;
4182;SDS011;2105;52.300;9.182;2023-11-18T14:36:18;14.47;;;9.17;;
4182;SDS011;2105;52.300;9.182;2023-11-18T14:38:45;11.67;;;8.60;;
4182;SDS011;2105;52.300;9.182;2023-11-18T14:41:12;13.23;;;9.20;;
4182;SDS011;2105;52.300;9.182;2023-11-18T14:43:40;16.20;;;10.50;;
4182;SDS011;2105;52.300;9.182;2023-11-18T14:46:07;13.10;;;9.80;;
4182;SDS011;2105;52.300;9.182;2023-11-18T14:48:34;11.50;;;8.93;;
4182;SDS011;2105;52.300;9.182;2023-11-18T14:51:01;11.87;;;8.27;;
4182;SDS011;2105;52.300;9.182;2023-11-18T14:53:31;15.93;;;10.70;;
4182;SDS011;2105;52.300;9.182;2023-11-18T14:55:59;15.23;;;10.07;;
4182;SDS011;2105;52.300;9.182;2023-11-18T14:58:27;16.20;;;9.53;;
4182;SDS011;2105;52.300;9.182;2023-11-18T15:00:53;15.53;;;9.70;;